sensor_id;sensor_type;location;lat;lon;timestamp;P1;durP1;ratioP1;P2;durP2;ratioP2
44358;SDS011;30077;52.474;13.326;2022-09-21T00:02:07;4.18;;;3.78;;
44358;SDS011;30077;52.474;13.326;2022-09-21T00:07:07;5.50;;;3.88;;
44358;SDS011;30077;52.474;13.326;2022-09-21T00:12:07;7.25;;;4.35;;
44358;SDS011;30077;52.474;13.326;2022-09-21T00:17:08;6.50;;;4.45;;
44358;SDS011;30077;52.474;13.326;2022-09-21T00:22:09;9.13;;;5.05;;
44358;SDS011;30077;52.474;13.326;2022-09-21T00:27:09;6.25;;;4.82;;
44358;SDS011;30077;52.474;13.326;2022-09-21T00:32:10;6.35;;;4.32;;
44358;SDS011;30077;52.474;13.326;2022-09-21T00:37:10;9.05;;;4.60;;
44358;SDS011;30077;52.474;13.326;2022-09-21T00:42:17;6.13;;;5.00;;
44358;SDS011;30077;52.474;13.326;2022-09-21T00:47:25;7.07;;;4.30;;
44358;SDS011;30077;52.474;13.326;2022-09-21T00:52:36;8.40;;;4.68;;
44358;SDS011;30077;52.474;13.326;2022-09-21T00:57:40;6.43;;;4.63;;
44358;SDS011;30077;52.474;13.326;2022-09-21T01:02:41;5.38;;;4.43;;
44358;SDS011;30077;52.474;13.326;2022-09-21T01:07:44;5.82;;;4.10;;
44358;SDS011;30077;52.474;13.326;2022-09-21T01:12:55;8.43;;;4.65;;
44358;SDS011;30077;52.474;13.326;2022-09-21T01:18:12;6.22;;;4.70;;
44358;SDS011;30077;52.474;13.326;2022-09-21T01:23:41;8.80;;;5.55;;
44358;SDS011;30077;52.474;13.326;2022-09-21T01:34:29;13.80;;;11.32;;
44358;SDS011;30077;52.474;13.326;2022-09-21T01:44:38;16.80;;;11.67;;
44358;SDS011;30077;52.474;13.326;2022-09-21T01:49:42;11.95;;;9.27;;
44358;SDS011;30077;52.474;13.326;2022-09-21T01:54:47;9.48;;;6.53;;
44358;SDS011;30077;52.474;13.326;2022-09-21T01:59:56;10.40;;;7.63;;
44358;SDS011;30077;52.474;13.326;2022-09-21T02:05:02;10.75;;;7.93;;
44358;SDS011;30077;52.474;13.326;2022-09-21T02:10:04;13.50;;;7.53;;
44358;SDS011;30077;52.474;13.326;2022-09-21T02:15:07;9.95;;;5.97;;
44358;SDS011;30077;52.474;13.326;2022-09-21T02:20:18;7.95;;;5.80;;
44358;SDS011;30077;52.474;13.326;2022-09-21T02:25:27;9.50;;;6.00;;
44358;SDS011;30077;52.474;13.326;2022-09-21T02:30:36;7.82;;;5.05;;
44358;SDS011;30077;52.474;13.326;2022-09-21T02:35:44;8.23;;;5.60;;
44358;SDS011;30077;52.474;13.326;2022-09-21T02:40:52;8.20;;;5.55;;
44358;SDS011;30077;52.474;13.326;2022-09-21T02:46:13;8.00;;;5.53;;
44358;SDS011;30077;52.474;13.326;2022-09-21T02:51:20;7.95;;;5.53;;
44358;SDS011;30077;52.474;13.326;2022-09-21T02:56:24;7.00;;;5.40;;
44358;SDS011;30077;52.474;13.326;2022-09-21T03:01:26;10.77;;;6.15;;
44358;SDS011;30077;52.474;13.326;2022-09-21T03:06:27;7.20;;;5.43;;
44358;SDS011;30077;52.474;13.326;2022-09-21T03:11:28;9.57;;;5.97;;
44358;SDS011;30077;52.474;13.326;2022-09-21T03:16:28;9.40;;;5.78;;
44358;SDS011;30077;52.474;13.326;2022-09-21T03:21:28;8.77;;;6.18;;
44358;SDS011;30077;52.474;13.326;2022-09-21T03:26:29;9.90;;;6.57;;
44358;SDS011;30077;52.474;13.326;2022-09-21T03:31:29;14.75;;;11.02;;
44358;SDS011;30077;52.474;13.326;2022-09-21T03:36:31;25.75;;;18.75;;
44358;SDS011;30077;52.474;13.326;2022-09-21T03:41:31;26.77;;;19.80;;
44358;SDS011;30077;52.474;13.326;2022-09-21T03:46:31;20.10;;;12.50;;
44358;SDS011;30077;52.474;13.326;2022-09-21T03:51:34;15.73;;;8.85;;
44358;SDS011;30077;52.474;13.326;2022-09-21T03:56:34;12.45;;;8.13;;
44358;SDS011;30077;52.474;13.326;2022-09-21T04:01:35;11.63;;;6.47;;
44358;SDS011;30077;52.474;13.326;2022-09-21T04:06:35;9.57;;;6.13;;
44358;SDS011;30077;52.474;13.326;2022-09-21T04:11:35;9.85;;;5.82;;
44358;SDS011;30077;52.474;13.326;2022-09-21T04:16:35;8.17;;;6.00;;
44358;SDS011;30077;52.474;13.326;2022-09-21T04:21:36;11.13;;;6.35;;
44358;SDS011;30077;52.474;13.326;2022-09-21T04:26:36;11.27;;;5.82;;
44358;SDS011;30077;52.474;13.326;2022-09-21T04:31:37;13.07;;;6.75;;
44358;SDS011;30077;52.474;13.326;2022-09-21T04:36:38;7.82;;;6.22;;
44358;SDS011;30077;52.474;13.326;2022-09-21T04:41:38;9.68;;;6.40;;
44358;SDS011;30077;52.474;13.326;2022-09-21T04:46:39;9.10;;;6.15;;
44358;SDS011;30077;52.474;13.326;2022-09-21T04:51:41;10.13;;;6.65;;
44358;SDS011;30077;52.474;13.326;2022-09-21T04:56:41;14.70;;;9.13;;
44358;SDS011;30077;52.474;13.326;2022-09-21T05:01:41;10.63;;;7.72;;
44358;SDS011;30077;52.474;13.326;2022-09-21T05:06:42;10.27;;;7.10;;
44358;SDS011;30077;52.474;13.326;2022-09-21T05:11:42;12.10;;;6.85;;
44358;SDS011;30077;52.474;13.326;2022-09-21T05:16:42;11.43;;;7.10;;
44358;SDS011;30077;52.474;13.326;2022-09-21T05:21:43;11.85;;;6.80;;
44358;SDS011;30077;52.474;13.326;2022-09-21T05:26:43;9.68;;;7.38;;
44358;SDS011;30077;52.474;13.326;2022-09-21T05:31:47;9.32;;;6.40;;
44358;SDS011;30077;52.474;13.326;2022-09-21T05:36:56;11.02;;;7.25;;
44358;SDS011;30077;52.474;13.326;2022-09-21T05:42:01;9.30;;;7.70;;
44358;SDS011;30077;52.474;13.326;2022-09-21T05:52:42;9.07;;;7.32;;
44358;SDS011;30077;52.474;13.326;2022-09-21T05:57:47;10.68;;;7.35;;
44358;SDS011;30077;52.474;13.326;2022-09-21T06:08:25;10.90;;;7.50;;
44358;SDS011;30077;52.474;13.326;2022-09-21T06:13:25;11.47;;;7.67;;
44358;SDS011;30077;52.474;13.326;2022-09-21T06:18:26;10.68;;;6.90;;
44358;SDS011;30077;52.474;13.326;2022-09-21T06:23:26;15.60;;;8.35;;
44358;SDS011;30077;52.474;13.326;2022-09-21T06:28:35;10.45;;;6.93;;
44358;SDS011;30077;52.474;13.326;2022-09-21T06:33:36;10.77;;;6.95;;
44358;SDS011;30077;52.474;13.326;2022-09-21T06:38:37;10.48;;;7.20;;
44358;SDS011;30077;52.474;13.326;2022-09-21T06:43:38;12.13;;;7.38;;
44358;SDS011;30077;52.474;13.326;2022-09-21T06:48:38;12.13;;;7.30;;
44358;SDS011;30077;52.474;13.326;2022-09-21T06:53:38;13.88;;;8.95;;
44358;SDS011;30077;52.474;13.326;2022-09-21T06:58:39;14.40;;;7.67;;
44358;SDS011;30077;52.474;13.326;2022-09-21T07:03:39;18.65;;;9.82;;
44358;SDS011;30077;52.474;13.326;2022-09-21T07:08:41;17.67;;;8.98;;
44358;SDS011;30077;52.474;13.326;2022-09-21T07:13:41;12.77;;;7.78;;
44358;SDS011;30077;52.474;13.326;2022-09-21T07:18:41;13.25;;;10.30;;
44358;SDS011;30077;52.474;13.326;2022-09-21T07:23:42;14.90;;;7.90;;
44358;SDS011;30077;52.474;13.326;2022-09-21T07:28:43;11.05;;;8.10;;
44358;SDS011;30077;52.474;13.326;2022-09-21T07:33:43;11.05;;;7.10;;
44358;SDS011;30077;52.474;13.326;2022-09-21T07:38:47;10.88;;;5.95;;
44358;SDS011;30077;52.474;13.326;2022-09-21T07:43:47;8.63;;;5.85;;
44358;SDS011;30077;52.474;13.326;2022-09-21T07:48:48;9.07;;;6.37;;
44358;SDS011;30077;52.474;13.326;2022-09-21T07:53:52;9.73;;;6.90;;
44358;SDS011;30077;52.474;13.326;2022-09-21T07:58:55;10.18;;;6.13;;
44358;SDS011;30077;52.474;13.326;2022-09-21T08:04:16;10.05;;;6.80;;
44358;SDS011;30077;52.474;13.326;2022-09-21T08:09:16;9.63;;;6.50;;
44358;SDS011;30077;52.474;13.326;2022-09-21T08:14:16;8.38;;;5.72;;
44358;SDS011;30077;52.474;13.326;2022-09-21T08:24:19;9.53;;;6.10;;
44358;SDS011;30077;52.474;13.326;2022-09-21T08:29:20;6.67;;;4.97;;
44358;SDS011;30077;52.474;13.326;2022-09-21T08:34:20;6.57;;;5.18;;
44358;SDS011;30077;52.474;13.326;2022-09-21T08:39:22;8.05;;;4.30;;
44358;SDS011;30077;52.474;13.326;2022-09-21T08:44:23;8.18;;;5.85;;
44358;SDS011;30077;52.474;13.326;2022-09-21T08:49:27;10.90;;;5.38;;
44358;SDS011;30077;52.474;13.326;2022-09-21T08:54:42;9.18;;;5.20;;
44358;SDS011;30077;52.474;13.326;2022-09-21T08:59:48;7.68;;;4.57;;
44358;SDS011;30077;52.474;13.326;2022-09-21T09:04:52;7.43;;;5.45;;
44358;SDS011;30077;52.474;13.326;2022-09-21T09:10:10;11.40;;;5.88;;
44358;SDS011;30077;52.474;13.326;2022-09-21T09:15:46;6.47;;;4.85;;
44358;SDS011;30077;52.474;13.326;2022-09-21T09:20:56;7.78;;;3.80;;
44358;SDS011;30077;52.474;13.326;2022-09-21T09:26:06;6.53;;;4.43;;
44358;SDS011;30077;52.474;13.326;2022-09-21T09:31:18;7.50;;;4.60;;
44358;SDS011;30077;52.474;13.326;2022-09-21T09:36:24;8.90;;;5.10;;
44358;SDS011;30077;52.474;13.326;2022-09-21T09:52:02;6.90;;;4.40;;
44358;SDS011;30077;52.474;13.326;2022-09-21T09:57:04;9.07;;;4.38;;
44358;SDS011;30077;52.474;13.326;2022-09-21T10:02:09;8.20;;;4.30;;
44358;SDS011;30077;52.474;13.326;2022-09-21T10:07:17;5.97;;;3.67;;
44358;SDS011;30077;52.474;13.326;2022-09-21T10:12:18;7.18;;;2.92;;
44358;SDS011;30077;52.474;13.326;2022-09-21T10:17:23;7.82;;;2.67;;
44358;SDS011;30077;52.474;13.326;2022-09-21T10:22:24;4.30;;;2.40;;
44358;SDS011;30077;52.474;13.326;2022-09-21T10:27:28;6.28;;;2.15;;
44358;SDS011;30077;52.474;13.326;2022-09-21T10:32:34;2.83;;;2.03;;
44358;SDS011;30077;52.474;13.326;2022-09-21T10:38:15;2.72;;;1.80;;
44358;SDS011;30077;52.474;13.326;2022-09-21T10:43:32;3.60;;;1.63;;
44358;SDS011;30077;52.474;13.326;2022-09-21T10:48:35;2.25;;;1.60;;
44358;SDS011;30077;52.474;13.326;2022-09-21T10:53:36;1.98;;;1.30;;
44358;SDS011;30077;52.474;13.326;2022-09-21T10:58:37;2.38;;;1.10;;
44358;SDS011;30077;52.474;13.326;2022-09-21T11:03:41;4.30;;;1.55;;
44358;SDS011;30077;52.474;13.326;2022-09-21T11:08:52;1.42;;;1.27;;
44358;SDS011;30077;52.474;13.326;2022-09-21T11:14:11;2.53;;;1.47;;
44358;SDS011;30077;52.474;13.326;2022-09-21T11:19:33;2.53;;;1.20;;
44358;SDS011;30077;52.474;13.326;2022-09-21T11:30:17;7.55;;;2.60;;
44358;SDS011;30077;52.474;13.326;2022-09-21T11:56:46;3.40;;;1.05;;
44358;SDS011;30077;52.474;13.326;2022-09-21T12:01:51;7.82;;;5.03;;
44358;SDS011;30077;52.474;13.326;2022-09-21T12:07:15;3.88;;;1.85;;
44358;SDS011;30077;52.474;13.326;2022-09-21T12:12:43;2.58;;;1.30;;
44358;SDS011;30077;52.474;13.326;2022-09-21T12:17:53;2.92;;;1.30;;
44358;SDS011;30077;52.474;13.326;2022-09-21T12:23:09;1.20;;;1.10;;
44358;SDS011;30077;52.474;13.326;2022-09-21T12:28:23;2.72;;;1.42;;
44358;SDS011;30077;52.474;13.326;2022-09-21T12:49:15;2.90;;;1.60;;
44358;SDS011;30077;52.474;13.326;2022-09-21T12:54:25;3.20;;;1.45;;
44358;SDS011;30077;52.474;13.326;2022-09-21T12:59:39;2.03;;;1.08;;
44358;SDS011;30077;52.474;13.326;2022-09-21T13:10:06;5.57;;;1.27;;
44358;SDS011;30077;52.474;13.326;2022-09-21T13:20:26;4.20;;;1.53;;
44358;SDS011;30077;52.474;13.326;2022-09-21T13:25:32;1.80;;;1.55;;
44358;SDS011;30077;52.474;13.326;2022-09-21T13:41:29;3.25;;;1.15;;
44358;SDS011;30077;52.474;13.326;2022-09-21T13:51:32;1.77;;;0.90;;
44358;SDS011;30077;52.474;13.326;2022-09-21T13:56:33;1.20;;;1.20;;
44358;SDS011;30077;52.474;13.326;2022-09-21T14:01:34;2.05;;;1.27;;
44358;SDS011;30077;52.474;13.326;2022-09-21T14:06:40;1.35;;;1.13;;
44358;SDS011;30077;52.474;13.326;2022-09-21T14:11:42;2.55;;;1.35;;
44358;SDS011;30077;52.474;13.326;2022-09-21T14:32:41;2.80;;;1.13;;
44358;SDS011;30077;52.474;13.326;2022-09-21T14:37:51;0.73;;;0.70;;
44358;SDS011;30077;52.474;13.326;2022-09-21T14:42:57;1.05;;;0.95;;
44358;SDS011;30077;52.474;13.326;2022-09-21T14:48:07;1.40;;;1.20;;
44358;SDS011;30077;52.474;13.326;2022-09-21T14:53:22;3.28;;;1.00;;
44358;SDS011;30077;52.474;13.326;2022-09-21T14:58:59;2.35;;;1.10;;
44358;SDS011;30077;52.474;13.326;2022-09-21T15:09:52;2.45;;;0.98;;
44358;SDS011;30077;52.474;13.326;2022-09-21T15:15:38;1.67;;;1.20;;
44358;SDS011;30077;52.474;13.326;2022-09-21T15:20:49;1.15;;;1.00;;
44358;SDS011;30077;52.474;13.326;2022-09-21T15:26:01;1.02;;;0.95;;
44358;SDS011;30077;52.474;13.326;2022-09-21T15:31:04;1.10;;;1.00;;
44358;SDS011;30077;52.474;13.326;2022-09-21T15:36:06;1.93;;;1.10;;
44358;SDS011;30077;52.474;13.326;2022-09-21T15:41:09;6.93;;;1.65;;
44358;SDS011;30077;52.474;13.326;2022-09-21T15:46:36;3.08;;;1.60;;
44358;SDS011;30077;52.474;13.326;2022-09-21T15:51:37;3.67;;;1.20;;
44358;SDS011;30077;52.474;13.326;2022-09-21T15:56:41;2.97;;;1.40;;
44358;SDS011;30077;52.474;13.326;2022-09-21T16:01:44;4.25;;;1.67;;
44358;SDS011;30077;52.474;13.326;2022-09-21T16:06:56;1.92;;;1.40;;
44358;SDS011;30077;52.474;13.326;2022-09-21T16:12:23;4.28;;;1.20;;
44358;SDS011;30077;52.474;13.326;2022-09-21T16:17:28;1.58;;;1.23;;
44358;SDS011;30077;52.474;13.326;2022-09-21T16:22:38;2.95;;;1.00;;
44358;SDS011;30077;52.474;13.326;2022-09-21T16:27:48;1.98;;;1.58;;
44358;SDS011;30077;52.474;13.326;2022-09-21T16:32:53;2.13;;;1.30;;
44358;SDS011;30077;52.474;13.326;2022-09-21T16:37:53;2.40;;;1.35;;
44358;SDS011;30077;52.474;13.326;2022-09-21T16:42:56;2.72;;;1.73;;
44358;SDS011;30077;52.474;13.326;2022-09-21T16:47:57;4.00;;;2.28;;
44358;SDS011;30077;52.474;13.326;2022-09-21T16:52:58;3.85;;;1.27;;
44358;SDS011;30077;52.474;13.326;2022-09-21T16:57:58;3.47;;;1.50;;
44358;SDS011;30077;52.474;13.326;2022-09-21T17:02:59;7.38;;;1.75;;
44358;SDS011;30077;52.474;13.326;2022-09-21T17:08:01;1.83;;;1.27;;
44358;SDS011;30077;52.474;13.326;2022-09-21T17:13:01;2.58;;;1.50;;
44358;SDS011;30077;52.474;13.326;2022-09-21T17:18:05;2.50;;;1.48;;
44358;SDS011;30077;52.474;13.326;2022-09-21T17:23:06;5.63;;;2.20;;
44358;SDS011;30077;52.474;13.326;2022-09-21T17:28:11;3.80;;;1.95;;
44358;SDS011;30077;52.474;13.326;2022-09-21T17:33:14;2.78;;;1.60;;
44358;SDS011;30077;52.474;13.326;2022-09-21T17:43:37;4.00;;;1.75;;
44358;SDS011;30077;52.474;13.326;2022-09-21T17:48:47;63.83;;;35.67;;
44358;SDS011;30077;52.474;13.326;2022-09-21T17:53:50;19.67;;;11.95;;
44358;SDS011;30077;52.474;13.326;2022-09-21T17:58:54;19.25;;;10.88;;
44358;SDS011;30077;52.474;13.326;2022-09-21T18:03:59;16.23;;;8.75;;
44358;SDS011;30077;52.474;13.326;2022-09-21T18:09:00;10.25;;;6.13;;
44358;SDS011;30077;52.474;13.326;2022-09-21T18:14:13;14.13;;;6.82;;
44358;SDS011;30077;52.474;13.326;2022-09-21T18:24:27;5.35;;;3.40;;
44358;SDS011;30077;52.474;13.326;2022-09-21T18:29:32;7.75;;;3.80;;
44358;SDS011;30077;52.474;13.326;2022-09-21T18:45:20;6.57;;;3.95;;
44358;SDS011;30077;52.474;13.326;2022-09-21T18:50:26;5.75;;;3.80;;
44358;SDS011;30077;52.474;13.326;2022-09-21T18:55:32;6.68;;;4.72;;
44358;SDS011;30077;52.474;13.326;2022-09-21T19:00:33;11.82;;;6.03;;
44358;SDS011;30077;52.474;13.326;2022-09-21T19:05:34;8.23;;;4.75;;
44358;SDS011;30077;52.474;13.326;2022-09-21T19:10:41;10.63;;;6.53;;
44358;SDS011;30077;52.474;13.326;2022-09-21T19:15:53;17.73;;;9.80;;
44358;SDS011;30077;52.474;13.326;2022-09-21T19:21:14;16.83;;;9.57;;
44358;SDS011;30077;52.474;13.326;2022-09-21T19:31:36;32.83;;;15.73;;
44358;SDS011;30077;52.474;13.326;2022-09-21T19:36:36;16.75;;;8.88;;
44358;SDS011;30077;52.474;13.326;2022-09-21T19:46:50;11.68;;;6.00;;
44358;SDS011;30077;52.474;13.326;2022-09-21T19:51:58;13.45;;;6.82;;
44358;SDS011;30077;52.474;13.326;2022-09-21T20:02:33;10.65;;;5.63;;
44358;SDS011;30077;52.474;13.326;2022-09-21T20:07:56;11.32;;;5.88;;
44358;SDS011;30077;52.474;13.326;2022-09-21T20:13:06;10.75;;;6.97;;
44358;SDS011;30077;52.474;13.326;2022-09-21T20:28:46;13.83;;;7.07;;
44358;SDS011;30077;52.474;13.326;2022-09-21T20:33:46;25.45;;;14.48;;
44358;SDS011;30077;52.474;13.326;2022-09-21T20:38:46;16.80;;;8.80;;
44358;SDS011;30077;52.474;13.326;2022-09-21T20:43:47;18.20;;;8.35;;
44358;SDS011;30077;52.474;13.326;2022-09-21T20:48:48;12.80;;;6.80;;
44358;SDS011;30077;52.474;13.326;2022-09-21T20:53:59;10.88;;;5.97;;
44358;SDS011;30077;52.474;13.326;2022-09-21T20:59:03;9.98;;;6.35;;
44358;SDS011;30077;52.474;13.326;2022-09-21T21:04:05;16.73;;;9.95;;
44358;SDS011;30077;52.474;13.326;2022-09-21T21:09:05;18.20;;;8.27;;
44358;SDS011;30077;52.474;13.326;2022-09-21T21:14:06;32.63;;;15.13;;
44358;SDS011;30077;52.474;13.326;2022-09-21T21:19:07;17.02;;;8.88;;
44358;SDS011;30077;52.474;13.326;2022-09-21T21:24:07;14.23;;;7.95;;
44358;SDS011;30077;52.474;13.326;2022-09-21T21:29:26;13.00;;;7.50;;
44358;SDS011;30077;52.474;13.326;2022-09-21T21:34:26;13.07;;;7.78;;
44358;SDS011;30077;52.474;13.326;2022-09-21T21:39:26;15.25;;;7.28;;
44358;SDS011;30077;52.474;13.326;2022-09-21T21:44:27;11.80;;;7.35;;
44358;SDS011;30077;52.474;13.326;2022-09-21T21:49:27;14.50;;;7.68;;
44358;SDS011;30077;52.474;13.326;2022-09-21T21:54:27;16.77;;;8.35;;
44358;SDS011;30077;52.474;13.326;2022-09-21T21:59:27;13.85;;;8.02;;
44358;SDS011;30077;52.474;13.326;2022-09-21T22:04:28;13.77;;;8.35;;
44358;SDS011;30077;52.474;13.326;2022-09-21T22:09:28;13.80;;;7.27;;
44358;SDS011;30077;52.474;13.326;2022-09-21T22:14:28;11.15;;;7.13;;
44358;SDS011;30077;52.474;13.326;2022-09-21T22:19:29;14.27;;;7.60;;
44358;SDS011;30077;52.474;13.326;2022-09-21T22:24:29;12.90;;;7.20;;
44358;SDS011;30077;52.474;13.326;2022-09-21T22:29:30;15.05;;;7.20;;
44358;SDS011;30077;52.474;13.326;2022-09-21T22:34:30;19.23;;;10.20;;
44358;SDS011;30077;52.474;13.326;2022-09-21T22:39:31;15.10;;;8.50;;
44358;SDS011;30077;52.474;13.326;2022-09-21T22:44:31;10.65;;;7.05;;
44358;SDS011;30077;52.474;13.326;2022-09-21T22:49:31;14.00;;;7.28;;
44358;SDS011;30077;52.474;13.326;2022-09-21T22:54:32;16.10;;;8.33;;
44358;SDS011;30077;52.474;13.326;2022-09-21T22:59:32;14.23;;;7.50;;
44358;SDS011;30077;52.474;13.326;2022-09-21T23:04:32;11.35;;;6.82;;
44358;SDS011;30077;52.474;13.326;2022-09-21T23:09:32;11.68;;;6.75;;
44358;SDS011;30077;52.474;13.326;2022-09-21T23:14:33;10.38;;;6.45;;
44358;SDS011;30077;52.474;13.326;2022-09-21T23:19:33;12.75;;;6.25;;
44358;SDS011;30077;52.474;13.326;2022-09-21T23:24:34;14.65;;;6.43;;
44358;SDS011;30077;52.474;13.326;2022-09-21T23:29:34;10.48;;;6.05;;
44358;SDS011;30077;52.474;13.326;2022-09-21T23:34:34;14.13;;;5.87;;
44358;SDS011;30077;52.474;13.326;2022-09-21T23:39:35;11.52;;;6.00;;
44358;SDS011;30077;52.474;13.326;2022-09-21T23:44:35;9.60;;;6.10;;
44358;SDS011;30077;52.474;13.326;2022-09-21T23:49:37;12.70;;;6.00;;
44358;SDS011;30077;52.474;13.326;2022-09-21T23:54:37;8.10;;;5.22;;
44358;SDS011;30077;52.474;13.326;2022-09-21T23:59:38;9.07;;;5.20;;
